Aeroporto :
LOGIN :

Iscrizione | Disclaimer

   EN    FR    IT 

 










Sommario :    VFR   VFR Marginale   IFR   IFR Intensivo   IFR Molto Intensivo
Visibilità : 
Base nubi : 
>= 8 km
>= 3000ft
5 / 8 km
1000 / 3000 ft
1500m / 5 km
500 / 1000 ft
800 / 1500m
200 / 500 ft
< 800m
< 200 ft
Simboli :   Temporali  Nebbia  Neve Forte  Precipitazioni Forti  Vento > 20 kt
SIGMETs :   Varie  Temporali  Ghiacco  Turbolenza  Onda orograficha  Ceneri Vulcaniche






- Altitudine del aeroporto : 2356 ft


LZTT - Poprad Tatry

ULTIMO METAR :
  • 301730Z 03014KT 9999 FEW040 M03/M13 Q1018

METARs OBSOLETI :
  • 301700Z 04011KT 9999 FEW046 M03/M14 Q1018
  • 301630Z 04015KT 9999 FEW046 M01/M14 Q1018
  • 301600Z 04017KT 9999 FEW046 M01/M14 Q1017 NOSIG

TAF TAF LZTT
Valido dal 30 a 18 ore il 31 a 18 ore UTC


301700Z 3018/3118 05010KT 9999 FEW045
BECMG 3018/3020 25003KT
BECMG 3020/3022 CAVOK
BECMG 3106/3108 07005KT
BECMG 3113/3115 -SN BKN055



MetMap, La meteo Aeronautica in un colpo d'occhio ! - Copyright ORBIFLY Dicembre 2007 - Disclaimer

ORBIFLY MET'MAP TEAM :

Programmazione e sviluppo : Alexandra Zaïnal
Concezione : Baudouin d'Aumeries
Aiuto per la programmazione : Marc-Olivier Méhu
Supporto tecnico e logistico : Manuel Goepfert
Aiuto per la traduzione : Arnaldo La Scala

Contatto : metmap@orbifly.com




FONTI E CREDITI :

   NOAA